sensor_id;sensor_type;location;lat;lon;timestamp;P1;durP1;ratioP1;P2;durP2;ratioP2
22490;SDS011;11412;50.802;4.350;2024-01-06T00:01:40;3.72;;;2.10;;
22490;SDS011;11412;50.802;4.350;2024-01-06T00:04:06;3.88;;;2.22;;
22490;SDS011;11412;50.802;4.350;2024-01-06T00:06:32;5.55;;;2.42;;
22490;SDS011;11412;50.802;4.350;2024-01-06T00:08:57;6.97;;;2.85;;
22490;SDS011;11412;50.802;4.350;2024-01-06T00:11:23;2.75;;;1.83;;
22490;SDS011;11412;50.802;4.350;2024-01-06T00:13:49;5.20;;;2.53;;
22490;SDS011;11412;50.802;4.350;2024-01-06T00:16:18;5.20;;;2.30;;
22490;SDS011;11412;50.802;4.350;2024-01-06T00:18:47;5.38;;;2.47;;
22490;SDS011;11412;50.802;4.350;2024-01-06T00:21:13;5.28;;;2.00;;
22490;SDS011;11412;50.802;4.350;2024-01-06T00:23:41;5.55;;;2.35;;
22490;SDS011;11412;50.802;4.350;2024-01-06T00:26:07;3.95;;;1.73;;
22490;SDS011;11412;50.802;4.350;2024-01-06T00:28:34;3.58;;;2.30;;
22490;SDS011;11412;50.802;4.350;2024-01-06T00:31:00;4.82;;;2.00;;
22490;SDS011;11412;50.802;4.350;2024-01-06T00:33:26;3.90;;;2.03;;
22490;SDS011;11412;50.802;4.350;2024-01-06T00:35:51;3.10;;;2.13;;
22490;SDS011;11412;50.802;4.350;2024-01-06T00:38:17;4.13;;;2.00;;
22490;SDS011;11412;50.802;4.350;2024-01-06T00:40:43;2.80;;;2.05;;
22490;SDS011;11412;50.802;4.350;2024-01-06T00:43:09;1.60;;;1.50;;
22490;SDS011;11412;50.802;4.350;2024-01-06T00:45:35;3.80;;;1.92;;
22490;SDS011;11412;50.802;4.350;2024-01-06T00:48:00;3.08;;;1.92;;
22490;SDS011;11412;50.802;4.350;2024-01-06T00:50:26;2.03;;;1.83;;
22490;SDS011;11412;50.802;4.350;2024-01-06T00:52:52;2.95;;;2.05;;
22490;SDS011;11412;50.802;4.350;2024-01-06T00:55:21;2.95;;;1.90;;
22490;SDS011;11412;50.802;4.350;2024-01-06T00:57:47;3.45;;;2.00;;
22490;SDS011;11412;50.802;4.350;2024-01-06T01:00:13;3.38;;;2.10;;
22490;SDS011;11412;50.802;4.350;2024-01-06T01:02:39;2.95;;;1.98;;
22490;SDS011;11412;50.802;4.350;2024-01-06T01:05:05;3.03;;;2.15;;
22490;SDS011;11412;50.802;4.350;2024-01-06T01:07:32;3.00;;;2.45;;
22490;SDS011;11412;50.802;4.350;2024-01-06T01:09:58;4.25;;;2.30;;
22490;SDS011;11412;50.802;4.350;2024-01-06T01:12:24;6.00;;;2.22;;
22490;SDS011;11412;50.802;4.350;2024-01-06T01:14:50;6.55;;;2.22;;
22490;SDS011;11412;50.802;4.350;2024-01-06T01:17:16;4.45;;;2.13;;
22490;SDS011;11412;50.802;4.350;2024-01-06T01:19:42;2.88;;;2.33;;
22490;SDS011;11412;50.802;4.350;2024-01-06T01:22:08;5.43;;;2.63;;
22490;SDS011;11412;50.802;4.350;2024-01-06T01:24:34;4.45;;;2.83;;
22490;SDS011;11412;50.802;4.350;2024-01-06T01:26:59;6.78;;;2.88;;
22490;SDS011;11412;50.802;4.350;2024-01-06T01:29:25;4.18;;;2.35;;
22490;SDS011;11412;50.802;4.350;2024-01-06T01:31:51;6.10;;;3.05;;
22490;SDS011;11412;50.802;4.350;2024-01-06T01:34:17;7.50;;;2.80;;
22490;SDS011;11412;50.802;4.350;2024-01-06T01:36:42;4.95;;;3.10;;
22490;SDS011;11412;50.802;4.350;2024-01-06T01:39:08;4.22;;;2.35;;
22490;SDS011;11412;50.802;4.350;2024-01-06T01:41:34;5.93;;;2.42;;
22490;SDS011;11412;50.802;4.350;2024-01-06T01:44:00;3.60;;;2.63;;
22490;SDS011;11412;50.802;4.350;2024-01-06T01:46:27;6.38;;;2.53;;
22490;SDS011;11412;50.802;4.350;2024-01-06T01:48:53;5.85;;;2.60;;
22490;SDS011;11412;50.802;4.350;2024-01-06T01:51:23;4.38;;;2.17;;
22490;SDS011;11412;50.802;4.350;2024-01-06T01:53:52;3.35;;;2.03;;
22490;SDS011;11412;50.802;4.350;2024-01-06T01:56:18;2.42;;;2.03;;
22490;SDS011;11412;50.802;4.350;2024-01-06T01:58:44;5.93;;;2.40;;
22490;SDS011;11412;50.802;4.350;2024-01-06T02:01:11;4.57;;;1.90;;
22490;SDS011;11412;50.802;4.350;2024-01-06T02:03:37;5.50;;;2.05;;
22490;SDS011;11412;50.802;4.350;2024-01-06T02:06:05;3.25;;;2.15;;
22490;SDS011;11412;50.802;4.350;2024-01-06T02:08:31;3.95;;;1.80;;
22490;SDS011;11412;50.802;4.350;2024-01-06T02:10:57;3.28;;;1.98;;
22490;SDS011;11412;50.802;4.350;2024-01-06T02:13:23;1.63;;;1.52;;
22490;SDS011;11412;50.802;4.350;2024-01-06T02:15:49;4.75;;;1.83;;
22490;SDS011;11412;50.802;4.350;2024-01-06T02:18:15;2.47;;;1.80;;
22490;SDS011;11412;50.802;4.350;2024-01-06T02:20:42;3.67;;;1.60;;
22490;SDS011;11412;50.802;4.350;2024-01-06T02:23:09;3.13;;;1.60;;
22490;SDS011;11412;50.802;4.350;2024-01-06T02:25:35;7.55;;;1.90;;
22490;SDS011;11412;50.802;4.350;2024-01-06T02:28:01;4.03;;;1.90;;
22490;SDS011;11412;50.802;4.350;2024-01-06T02:30:26;3.47;;;1.60;;
22490;SDS011;11412;50.802;4.350;2024-01-06T02:32:52;3.92;;;1.52;;
22490;SDS011;11412;50.802;4.350;2024-01-06T02:35:18;1.65;;;1.50;;
22490;SDS011;11412;50.802;4.350;2024-01-06T02:37:44;1.92;;;1.70;;
22490;SDS011;11412;50.802;4.350;2024-01-06T02:40:09;6.28;;;1.20;;
22490;SDS011;11412;50.802;4.350;2024-01-06T02:42:36;3.15;;;2.13;;
22490;SDS011;11412;50.802;4.350;2024-01-06T02:45:01;2.30;;;1.70;;
22490;SDS011;11412;50.802;4.350;2024-01-06T02:47:27;2.80;;;1.50;;
22490;SDS011;11412;50.802;4.350;2024-01-06T02:49:53;5.03;;;2.10;;
22490;SDS011;11412;50.802;4.350;2024-01-06T02:52:19;2.08;;;1.50;;
22490;SDS011;11412;50.802;4.350;2024-01-06T02:54:45;2.53;;;1.65;;
22490;SDS011;11412;50.802;4.350;2024-01-06T02:57:10;5.10;;;1.88;;
22490;SDS011;11412;50.802;4.350;2024-01-06T02:59:38;1.70;;;1.60;;
22490;SDS011;11412;50.802;4.350;2024-01-06T03:02:04;3.13;;;1.88;;
22490;SDS011;11412;50.802;4.350;2024-01-06T03:04:29;2.30;;;1.98;;
22490;SDS011;11412;50.802;4.350;2024-01-06T03:06:55;1.70;;;1.60;;
22490;SDS011;11412;50.802;4.350;2024-01-06T03:09:21;3.10;;;1.70;;
22490;SDS011;11412;50.802;4.350;2024-01-06T03:11:47;2.17;;;1.67;;
22490;SDS011;11412;50.802;4.350;2024-01-06T03:14:12;2.17;;;1.90;;
22490;SDS011;11412;50.802;4.350;2024-01-06T03:16:38;2.28;;;1.77;;
22490;SDS011;11412;50.802;4.350;2024-01-06T03:19:04;1.90;;;1.80;;
22490;SDS011;11412;50.802;4.350;2024-01-06T03:21:30;2.58;;;1.70;;
22490;SDS011;11412;50.802;4.350;2024-01-06T03:23:55;2.13;;;1.90;;
22490;SDS011;11412;50.802;4.350;2024-01-06T03:26:21;2.17;;;1.90;;
22490;SDS011;11412;50.802;4.350;2024-01-06T03:28:49;1.80;;;1.70;;
22490;SDS011;11412;50.802;4.350;2024-01-06T03:31:15;2.08;;;1.98;;
22490;SDS011;11412;50.802;4.350;2024-01-06T03:33:42;1.92;;;1.83;;
22490;SDS011;11412;50.802;4.350;2024-01-06T03:36:08;2.05;;;1.70;;
22490;SDS011;11412;50.802;4.350;2024-01-06T03:38:34;1.75;;;1.65;;
22490;SDS011;11412;50.802;4.350;2024-01-06T03:41:00;2.13;;;1.92;;
22490;SDS011;11412;50.802;4.350;2024-01-06T03:43:26;1.80;;;1.70;;
22490;SDS011;11412;50.802;4.350;2024-01-06T03:45:51;1.73;;;1.63;;
22490;SDS011;11412;50.802;4.350;2024-01-06T03:48:17;1.88;;;1.77;;
22490;SDS011;11412;50.802;4.350;2024-01-06T03:50:43;1.73;;;1.73;;
22490;SDS011;11412;50.802;4.350;2024-01-06T03:53:08;2.75;;;1.67;;
22490;SDS011;11412;50.802;4.350;2024-01-06T03:55:34;2.55;;;2.20;;
22490;SDS011;11412;50.802;4.350;2024-01-06T03:58:00;2.30;;;2.20;;
22490;SDS011;11412;50.802;4.350;2024-01-06T04:00:25;2.72;;;2.55;;
22490;SDS011;11412;50.802;4.350;2024-01-06T04:02:51;2.72;;;2.53;;
22490;SDS011;11412;50.802;4.350;2024-01-06T04:05:17;3.55;;;3.25;;
22490;SDS011;11412;50.802;4.350;2024-01-06T04:07:43;3.17;;;2.92;;
22490;SDS011;11412;50.802;4.350;2024-01-06T04:10:09;3.30;;;3.10;;
22490;SDS011;11412;50.802;4.350;2024-01-06T04:12:34;3.35;;;3.00;;
22490;SDS011;11412;50.802;4.350;2024-01-06T04:15:00;3.75;;;3.47;;
22490;SDS011;11412;50.802;4.350;2024-01-06T04:17:26;3.88;;;3.53;;
22490;SDS011;11412;50.802;4.350;2024-01-06T04:19:52;4.22;;;3.83;;
22490;SDS011;11412;50.802;4.350;2024-01-06T04:22:18;3.90;;;3.53;;
22490;SDS011;11412;50.802;4.350;2024-01-06T04:24:44;4.90;;;4.07;;
22490;SDS011;11412;50.802;4.350;2024-01-06T04:27:09;6.13;;;4.40;;
22490;SDS011;11412;50.802;4.350;2024-01-06T04:29:35;4.93;;;3.85;;
22490;SDS011;11412;50.802;4.350;2024-01-06T04:32:01;4.95;;;4.30;;
22490;SDS011;11412;50.802;4.350;2024-01-06T04:34:27;7.28;;;5.15;;
22490;SDS011;11412;50.802;4.350;2024-01-06T04:36:52;7.65;;;5.28;;
22490;SDS011;11412;50.802;4.350;2024-01-06T04:39:18;5.28;;;4.80;;
22490;SDS011;11412;50.802;4.350;2024-01-06T04:41:44;6.65;;;4.72;;
22490;SDS011;11412;50.802;4.350;2024-01-06T04:44:10;6.25;;;5.65;;
22490;SDS011;11412;50.802;4.350;2024-01-06T04:46:35;7.57;;;5.20;;
22490;SDS011;11412;50.802;4.350;2024-01-06T04:49:01;7.53;;;5.20;;
22490;SDS011;11412;50.802;4.350;2024-01-06T04:51:27;6.07;;;5.47;;
22490;SDS011;11412;50.802;4.350;2024-01-06T04:53:53;6.60;;;6.00;;
22490;SDS011;11412;50.802;4.350;2024-01-06T04:56:19;6.32;;;5.28;;
22490;SDS011;11412;50.802;4.350;2024-01-06T04:58:44;8.45;;;5.88;;
22490;SDS011;11412;50.802;4.350;2024-01-06T05:01:10;8.52;;;5.47;;
22490;SDS011;11412;50.802;4.350;2024-01-06T05:03:36;5.97;;;5.32;;
22490;SDS011;11412;50.802;4.350;2024-01-06T05:06:02;5.85;;;5.18;;
22490;SDS011;11412;50.802;4.350;2024-01-06T05:08:28;6.60;;;5.93;;
22490;SDS011;11412;50.802;4.350;2024-01-06T05:10:56;9.30;;;6.60;;
22490;SDS011;11412;50.802;4.350;2024-01-06T05:13:21;8.82;;;6.20;;
22490;SDS011;11412;50.802;4.350;2024-01-06T05:15:47;8.90;;;6.22;;
22490;SDS011;11412;50.802;4.350;2024-01-06T05:18:13;7.20;;;6.47;;
22490;SDS011;11412;50.802;4.350;2024-01-06T05:20:38;8.90;;;6.78;;
22490;SDS011;11412;50.802;4.350;2024-01-06T05:23:06;7.70;;;6.63;;
22490;SDS011;11412;50.802;4.350;2024-01-06T05:25:32;6.38;;;5.78;;
22490;SDS011;11412;50.802;4.350;2024-01-06T05:27:57;8.30;;;6.43;;
22490;SDS011;11412;50.802;4.350;2024-01-06T05:30:23;7.65;;;5.85;;
22490;SDS011;11412;50.802;4.350;2024-01-06T05:32:49;6.63;;;6.03;;
22490;SDS011;11412;50.802;4.350;2024-01-06T05:35:17;9.18;;;6.28;;
22490;SDS011;11412;50.802;4.350;2024-01-06T05:37:43;7.45;;;6.18;;
22490;SDS011;11412;50.802;4.350;2024-01-06T05:40:08;8.40;;;6.43;;
22490;SDS011;11412;50.802;4.350;2024-01-06T05:42:34;8.85;;;6.10;;
22490;SDS011;11412;50.802;4.350;2024-01-06T05:45:00;10.85;;;6.30;;
22490;SDS011;11412;50.802;4.350;2024-01-06T05:47:26;8.70;;;5.80;;
22490;SDS011;11412;50.802;4.350;2024-01-06T05:49:51;6.68;;;5.72;;
22490;SDS011;11412;50.802;4.350;2024-01-06T05:52:17;8.98;;;5.32;;
22490;SDS011;11412;50.802;4.350;2024-01-06T05:54:43;6.55;;;5.47;;
22490;SDS011;11412;50.802;4.350;2024-01-06T05:57:08;9.57;;;5.65;;
22490;SDS011;11412;50.802;4.350;2024-01-06T05:59:34;8.40;;;5.82;;
22490;SDS011;11412;50.802;4.350;2024-01-06T06:02:00;7.47;;;5.38;;
22490;SDS011;11412;50.802;4.350;2024-01-06T06:04:25;7.57;;;5.97;;
22490;SDS011;11412;50.802;4.350;2024-01-06T06:06:51;9.23;;;6.00;;
22490;SDS011;11412;50.802;4.350;2024-01-06T06:09:17;8.68;;;6.03;;
22490;SDS011;11412;50.802;4.350;2024-01-06T06:11:42;6.95;;;5.80;;
22490;SDS011;11412;50.802;4.350;2024-01-06T06:14:08;10.95;;;6.95;;
22490;SDS011;11412;50.802;4.350;2024-01-06T06:16:34;9.20;;;6.10;;
22490;SDS011;11412;50.802;4.350;2024-01-06T06:19:00;8.77;;;6.40;;
22490;SDS011;11412;50.802;4.350;2024-01-06T06:21:26;7.88;;;6.10;;
22490;SDS011;11412;50.802;4.350;2024-01-06T06:23:53;8.50;;;5.70;;
22490;SDS011;11412;50.802;4.350;2024-01-06T06:26:18;6.80;;;5.45;;
22490;SDS011;11412;50.802;4.350;2024-01-06T06:28:44;6.80;;;5.80;;
22490;SDS011;11412;50.802;4.350;2024-01-06T06:31:10;7.63;;;5.50;;
22490;SDS011;11412;50.802;4.350;2024-01-06T06:33:35;8.02;;;5.45;;
22490;SDS011;11412;50.802;4.350;2024-01-06T06:36:02;7.72;;;5.38;;
22490;SDS011;11412;50.802;4.350;2024-01-06T06:38:28;6.13;;;5.30;;
22490;SDS011;11412;50.802;4.350;2024-01-06T06:40:54;8.85;;;5.25;;
22490;SDS011;11412;50.802;4.350;2024-01-06T06:43:21;6.65;;;5.50;;
22490;SDS011;11412;50.802;4.350;2024-01-06T06:45:47;8.82;;;5.57;;
22490;SDS011;11412;50.802;4.350;2024-01-06T06:48:12;5.70;;;5.10;;
22490;SDS011;11412;50.802;4.350;2024-01-06T06:50:38;5.97;;;5.38;;
22490;SDS011;11412;50.802;4.350;2024-01-06T06:53:06;8.35;;;6.00;;
22490;SDS011;11412;50.802;4.350;2024-01-06T06:55:31;6.45;;;5.85;;
22490;SDS011;11412;50.802;4.350;2024-01-06T06:57:57;7.22;;;6.15;;
22490;SDS011;11412;50.802;4.350;2024-01-06T07:00:23;7.18;;;5.88;;
22490;SDS011;11412;50.802;4.350;2024-01-06T07:02:49;6.70;;;5.82;;
22490;SDS011;11412;50.802;4.350;2024-01-06T07:05:15;7.00;;;5.40;;
22490;SDS011;11412;50.802;4.350;2024-01-06T07:07:41;6.47;;;5.53;;
22490;SDS011;11412;50.802;4.350;2024-01-06T07:10:09;7.88;;;5.57;;
22490;SDS011;11412;50.802;4.350;2024-01-06T07:12:35;8.90;;;6.22;;
22490;SDS011;11412;50.802;4.350;2024-01-06T07:15:01;7.20;;;5.78;;
22490;SDS011;11412;50.802;4.350;2024-01-06T07:17:27;8.52;;;5.40;;
22490;SDS011;11412;50.802;4.350;2024-01-06T07:19:52;11.07;;;6.35;;
22490;SDS011;11412;50.802;4.350;2024-01-06T07:22:19;6.70;;;6.00;;
22490;SDS011;11412;50.802;4.350;2024-01-06T07:24:45;7.03;;;6.43;;
22490;SDS011;11412;50.802;4.350;2024-01-06T07:27:11;10.00;;;6.40;;
22490;SDS011;11412;50.802;4.350;2024-01-06T07:29:37;6.95;;;6.35;;
22490;SDS011;11412;50.802;4.350;2024-01-06T07:32:03;6.90;;;6.20;;
22490;SDS011;11412;50.802;4.350;2024-01-06T07:34:31;7.47;;;6.28;;
22490;SDS011;11412;50.802;4.350;2024-01-06T07:36:57;7.82;;;6.82;;
22490;SDS011;11412;50.802;4.350;2024-01-06T07:39:22;8.20;;;6.47;;
22490;SDS011;11412;50.802;4.350;2024-01-06T07:41:49;7.32;;;6.50;;
22490;SDS011;11412;50.802;4.350;2024-01-06T07:44:15;8.38;;;6.78;;
22490;SDS011;11412;50.802;4.350;2024-01-06T07:46:41;9.05;;;7.20;;
22490;SDS011;11412;50.802;4.350;2024-01-06T07:49:07;7.88;;;6.93;;
22490;SDS011;11412;50.802;4.350;2024-01-06T07:51:33;9.75;;;7.75;;
22490;SDS011;11412;50.802;4.350;2024-01-06T07:54:00;10.43;;;7.70;;
22490;SDS011;11412;50.802;4.350;2024-01-06T07:56:26;9.63;;;8.20;;
22490;SDS011;11412;50.802;4.350;2024-01-06T07:58:52;9.25;;;7.97;;
22490;SDS011;11412;50.802;4.350;2024-01-06T08:01:18;10.85;;;8.15;;
22490;SDS011;11412;50.802;4.350;2024-01-06T08:03:43;10.10;;;8.38;;
22490;SDS011;11412;50.802;4.350;2024-01-06T08:06:09;10.35;;;8.60;;
22490;SDS011;11412;50.802;4.350;2024-01-06T08:08:35;9.20;;;8.18;;
22490;SDS011;11412;50.802;4.350;2024-01-06T08:11:01;8.80;;;7.90;;
22490;SDS011;11412;50.802;4.350;2024-01-06T08:13:27;11.10;;;8.27;;
22490;SDS011;11412;50.802;4.350;2024-01-06T08:15:52;9.05;;;8.07;;
22490;SDS011;11412;50.802;4.350;2024-01-06T08:18:18;9.50;;;8.60;;
22490;SDS011;11412;50.802;4.350;2024-01-06T08:20:44;11.50;;;9.13;;
22490;SDS011;11412;50.802;4.350;2024-01-06T08:23:10;10.60;;;8.98;;
22490;SDS011;11412;50.802;4.350;2024-01-06T08:25:35;11.02;;;8.75;;
22490;SDS011;11412;50.802;4.350;2024-01-06T08:28:01;11.60;;;8.35;;
22490;SDS011;11412;50.802;4.350;2024-01-06T08:30:27;10.75;;;8.93;;
22490;SDS011;11412;50.802;4.350;2024-01-06T08:32:53;9.70;;;8.73;;
22490;SDS011;11412;50.802;4.350;2024-01-06T08:35:18;14.15;;;8.70;;
22490;SDS011;11412;50.802;4.350;2024-01-06T08:37:44;10.07;;;7.97;;
22490;SDS011;11412;50.802;4.350;2024-01-06T08:40:10;10.52;;;8.27;;
22490;SDS011;11412;50.802;4.350;2024-01-06T08:42:37;11.00;;;8.98;;
22490;SDS011;11412;50.802;4.350;2024-01-06T08:45:03;10.00;;;9.00;;
22490;SDS011;11412;50.802;4.350;2024-01-06T08:47:30;10.68;;;8.25;;
22490;SDS011;11412;50.802;4.350;2024-01-06T08:49:56;10.95;;;8.13;;
22490;SDS011;11412;50.802;4.350;2024-01-06T08:52:22;10.55;;;8.25;;
22490;SDS011;11412;50.802;4.350;2024-01-06T08:54:47;8.80;;;7.88;;
22490;SDS011;11412;50.802;4.350;2024-01-06T08:57:14;8.60;;;6.45;;
22490;SDS011;11412;50.802;4.350;2024-01-06T08:59:40;6.63;;;6.03;;
22490;SDS011;11412;50.802;4.350;2024-01-06T09:02:06;7.55;;;6.03;;
22490;SDS011;11412;50.802;4.350;2024-01-06T09:04:31;6.68;;;5.68;;
22490;SDS011;11412;50.802;4.350;2024-01-06T09:06:57;6.45;;;5.80;;
22490;SDS011;11412;50.802;4.350;2024-01-06T09:09:23;8.43;;;5.68;;
22490;SDS011;11412;50.802;4.350;2024-01-06T09:11:49;5.55;;;5.13;;
22490;SDS011;11412;50.802;4.350;2024-01-06T09:14:16;6.60;;;5.20;;
22490;SDS011;11412;50.802;4.350;2024-01-06T09:16:42;6.45;;;5.40;;
22490;SDS011;11412;50.802;4.350;2024-01-06T09:19:07;8.93;;;6.30;;
22490;SDS011;11412;50.802;4.350;2024-01-06T09:21:33;5.47;;;4.97;;
22490;SDS011;11412;50.802;4.350;2024-01-06T09:23:59;6.63;;;5.70;;
22490;SDS011;11412;50.802;4.350;2024-01-06T09:26:30;6.10;;;5.50;;
22490;SDS011;11412;50.802;4.350;2024-01-06T09:28:56;5.40;;;4.90;;
22490;SDS011;11412;50.802;4.350;2024-01-06T09:31:22;6.22;;;5.45;;
22490;SDS011;11412;50.802;4.350;2024-01-06T09:33:48;5.75;;;5.15;;
22490;SDS011;11412;50.802;4.350;2024-01-06T09:36:15;8.23;;;4.88;;
22490;SDS011;11412;50.802;4.350;2024-01-06T09:38:40;5.63;;;5.03;;
22490;SDS011;11412;50.802;4.350;2024-01-06T09:41:06;5.30;;;4.80;;
22490;SDS011;11412;50.802;4.350;2024-01-06T09:43:32;6.18;;;5.22;;
22490;SDS011;11412;50.802;4.350;2024-01-06T09:46:05;5.40;;;4.90;;
22490;SDS011;11412;50.802;4.350;2024-01-06T09:51:10;5.32;;;4.72;;
22490;SDS011;11412;50.802;4.350;2024-01-06T09:53:39;6.95;;;5.07;;
22490;SDS011;11412;50.802;4.350;2024-01-06T09:56:12;6.95;;;5.63;;
22490;SDS011;11412;50.802;4.350;2024-01-06T09:58:40;6.30;;;5.80;;
22490;SDS011;11412;50.802;4.350;2024-01-06T10:01:06;8.48;;;6.45;;
22490;SDS011;11412;50.802;4.350;2024-01-06T10:03:34;6.82;;;6.20;;
22490;SDS011;11412;50.802;4.350;2024-01-06T10:06:01;7.07;;;6.38;;
22490;SDS011;11412;50.802;4.350;2024-01-06T10:08:29;7.50;;;6.80;;
22490;SDS011;11412;50.802;4.350;2024-01-06T10:10:55;6.72;;;6.10;;
22490;SDS011;11412;50.802;4.350;2024-01-06T10:13:21;9.27;;;6.38;;
22490;SDS011;11412;50.802;4.350;2024-01-06T10:15:49;8.70;;;7.18;;
22490;SDS011;11412;50.802;4.350;2024-01-06T10:18:15;7.93;;;6.80;;
22490;SDS011;11412;50.802;4.350;2024-01-06T10:20:41;12.13;;;6.03;;
22490;SDS011;11412;50.802;4.350;2024-01-06T10:23:09;8.77;;;6.75;;
22490;SDS011;11412;50.802;4.350;2024-01-06T10:25:35;10.25;;;6.20;;
22490;SDS011;11412;50.802;4.350;2024-01-06T10:28:01;7.28;;;5.95;;
22490;SDS011;11412;50.802;4.350;2024-01-06T10:30:28;7.60;;;5.82;;
22490;SDS011;11412;50.802;4.350;2024-01-06T10:32:54;6.18;;;5.57;;
22490;SDS011;11412;50.802;4.350;2024-01-06T10:35:19;6.68;;;6.07;;
22490;SDS011;11412;50.802;4.350;2024-01-06T10:37:45;6.13;;;5.60;;
22490;SDS011;11412;50.802;4.350;2024-01-06T10:40:13;6.22;;;5.35;;
22490;SDS011;11412;50.802;4.350;2024-01-06T10:42:41;7.25;;;6.07;;
22490;SDS011;11412;50.802;4.350;2024-01-06T10:45:08;7.57;;;5.30;;
22490;SDS011;11412;50.802;4.350;2024-01-06T10:47:38;6.32;;;5.75;;
22490;SDS011;11412;50.802;4.350;2024-01-06T10:50:05;6.60;;;5.97;;
22490;SDS011;11412;50.802;4.350;2024-01-06T10:52:33;7.38;;;6.07;;
22490;SDS011;11412;50.802;4.350;2024-01-06T10:55:00;8.25;;;6.38;;
22490;SDS011;11412;50.802;4.350;2024-01-06T10:57:27;7.60;;;6.75;;
22490;SDS011;11412;50.802;4.350;2024-01-06T10:59:57;6.53;;;5.90;;
22490;SDS011;11412;50.802;4.350;2024-01-06T11:02:24;7.20;;;6.55;;
22490;SDS011;11412;50.802;4.350;2024-01-06T11:04:50;7.20;;;6.18;;
22490;SDS011;11412;50.802;4.350;2024-01-06T11:07:17;6.88;;;6.13;;
22490;SDS011;11412;50.802;4.350;2024-01-06T11:10:06;6.72;;;5.68;;
22490;SDS011;11412;50.802;4.350;2024-01-06T11:12:34;6.45;;;5.88;;
22490;SDS011;11412;50.802;4.350;2024-01-06T11:15:00;7.15;;;5.85;;
22490;SDS011;11412;50.802;4.350;2024-01-06T11:20:26;6.18;;;5.57;;
22490;SDS011;11412;50.802;4.350;2024-01-06T11:22:52;9.35;;;7.07;;
22490;SDS011;11412;50.802;4.350;2024-01-06T11:25:19;9.07;;;6.70;;
22490;SDS011;11412;50.802;4.350;2024-01-06T11:27:47;7.28;;;6.55;;
22490;SDS011;11412;50.802;4.350;2024-01-06T11:30:21;9.68;;;7.00;;
22490;SDS011;11412;50.802;4.350;2024-01-06T11:32:50;7.22;;;6.53;;
22490;SDS011;11412;50.802;4.350;2024-01-06T11:35:18;7.15;;;6.40;;
22490;SDS011;11412;50.802;4.350;2024-01-06T11:45:40;6.82;;;5.70;;
22490;SDS011;11412;50.802;4.350;2024-01-06T11:48:07;7.47;;;5.97;;
22490;SDS011;11412;50.802;4.350;2024-01-06T11:50:38;7.30;;;6.60;;
22490;SDS011;11412;50.802;4.350;2024-01-06T11:53:05;7.72;;;7.03;;
22490;SDS011;11412;50.802;4.350;2024-01-06T11:55:32;8.70;;;6.45;;
22490;SDS011;11412;50.802;4.350;2024-01-06T11:57:59;7.15;;;6.55;;
22490;SDS011;11412;50.802;4.350;2024-01-06T12:00:29;7.32;;;6.63;;
22490;SDS011;11412;50.802;4.350;2024-01-06T12:02:55;6.85;;;6.13;;
22490;SDS011;11412;50.802;4.350;2024-01-06T12:05:22;8.05;;;6.55;;
22490;SDS011;11412;50.802;4.350;2024-01-06T12:07:56;10.60;;;6.75;;
22490;SDS011;11412;50.802;4.350;2024-01-06T12:10:23;7.20;;;6.50;;
22490;SDS011;11412;50.802;4.350;2024-01-06T12:13:08;8.50;;;6.72;;
22490;SDS011;11412;50.802;4.350;2024-01-06T12:15:37;8.13;;;7.32;;
22490;SDS011;11412;50.802;4.350;2024-01-06T12:18:04;7.97;;;6.63;;
22490;SDS011;11412;50.802;4.350;2024-01-06T12:20:30;7.63;;;6.93;;
22490;SDS011;11412;50.802;4.350;2024-01-06T12:22:57;7.60;;;6.65;;
22490;SDS011;11412;50.802;4.350;2024-01-06T12:25:24;7.38;;;6.68;;
22490;SDS011;11412;50.802;4.350;2024-01-06T12:27:51;7.47;;;6.75;;
22490;SDS011;11412;50.802;4.350;2024-01-06T12:30:20;6.63;;;5.97;;
22490;SDS011;11412;50.802;4.350;2024-01-06T12:32:47;6.72;;;6.13;;
22490;SDS011;11412;50.802;4.350;2024-01-06T12:35:14;6.82;;;6.13;;
22490;SDS011;11412;50.802;4.350;2024-01-06T12:37:41;7.75;;;6.38;;
22490;SDS011;11412;50.802;4.350;2024-01-06T12:40:08;6.63;;;6.03;;
22490;SDS011;11412;50.802;4.350;2024-01-06T12:42:35;10.52;;;6.85;;
22490;SDS011;11412;50.802;4.350;2024-01-06T12:45:01;8.27;;;6.53;;
22490;SDS011;11412;50.802;4.350;2024-01-06T12:47:27;6.55;;;5.32;;
22490;SDS011;11412;50.802;4.350;2024-01-06T12:49:53;6.15;;;5.55;;
22490;SDS011;11412;50.802;4.350;2024-01-06T12:52:19;6.10;;;5.32;;
22490;SDS011;11412;50.802;4.350;2024-01-06T12:54:44;6.20;;;5.60;;
22490;SDS011;11412;50.802;4.350;2024-01-06T12:57:10;6.47;;;5.28;;
22490;SDS011;11412;50.802;4.350;2024-01-06T12:59:36;6.53;;;5.47;;
22490;SDS011;11412;50.802;4.350;2024-01-06T13:02:02;6.78;;;5.55;;
22490;SDS011;11412;50.802;4.350;2024-01-06T13:04:28;5.60;;;5.10;;
22490;SDS011;11412;50.802;4.350;2024-01-06T13:06:54;6.20;;;5.22;;
22490;SDS011;11412;50.802;4.350;2024-01-06T13:09:19;6.60;;;5.50;;
22490;SDS011;11412;50.802;4.350;2024-01-06T13:11:48;6.15;;;5.53;;
22490;SDS011;11412;50.802;4.350;2024-01-06T13:14:16;6.00;;;5.50;;
22490;SDS011;11412;50.802;4.350;2024-01-06T13:16:43;5.68;;;5.07;;
22490;SDS011;11412;50.802;4.350;2024-01-06T13:19:09;7.55;;;5.57;;
22490;SDS011;11412;50.802;4.350;2024-01-06T13:21:35;6.15;;;5.43;;
22490;SDS011;11412;50.802;4.350;2024-01-06T13:24:04;6.85;;;5.57;;
22490;SDS011;11412;50.802;4.350;2024-01-06T13:26:34;6.95;;;5.20;;
22490;SDS011;11412;50.802;4.350;2024-01-06T13:29:01;6.57;;;5.43;;
22490;SDS011;11412;50.802;4.350;2024-01-06T13:31:27;6.05;;;5.43;;
22490;SDS011;11412;50.802;4.350;2024-01-06T13:33:54;5.78;;;5.18;;
22490;SDS011;11412;50.802;4.350;2024-01-06T13:36:20;6.80;;;6.10;;
22490;SDS011;11412;50.802;4.350;2024-01-06T13:38:46;7.05;;;5.63;;
22490;SDS011;11412;50.802;4.350;2024-01-06T13:41:13;9.05;;;6.53;;
22490;SDS011;11412;50.802;4.350;2024-01-06T13:43:39;7.30;;;5.88;;
22490;SDS011;11412;50.802;4.350;2024-01-06T13:46:05;8.45;;;6.07;;
22490;SDS011;11412;50.802;4.350;2024-01-06T13:48:30;7.10;;;5.90;;
22490;SDS011;11412;50.802;4.350;2024-01-06T13:50:57;6.88;;;6.18;;
22490;SDS011;11412;50.802;4.350;2024-01-06T13:53:23;6.22;;;5.65;;
22490;SDS011;11412;50.802;4.350;2024-01-06T13:55:49;5.30;;;4.80;;
22490;SDS011;11412;50.802;4.350;2024-01-06T13:58:15;9.88;;;5.57;;
22490;SDS011;11412;50.802;4.350;2024-01-06T14:00:42;6.35;;;5.70;;
22490;SDS011;11412;50.802;4.350;2024-01-06T14:03:09;7.35;;;5.65;;
22490;SDS011;11412;50.802;4.350;2024-01-06T14:05:35;6.00;;;5.40;;
22490;SDS011;11412;50.802;4.350;2024-01-06T14:08:01;6.05;;;5.50;;
22490;SDS011;11412;50.802;4.350;2024-01-06T14:10:27;5.90;;;4.70;;
22490;SDS011;11412;50.802;4.350;2024-01-06T14:12:53;5.03;;;4.63;;
22490;SDS011;11412;50.802;4.350;2024-01-06T14:15:19;4.03;;;3.72;;
22490;SDS011;11412;50.802;4.350;2024-01-06T14:17:45;4.60;;;4.20;;
22490;SDS011;11412;50.802;4.350;2024-01-06T14:20:14;5.00;;;4.45;;
22490;SDS011;11412;50.802;4.350;2024-01-06T14:22:47;4.50;;;4.10;;
22490;SDS011;11412;50.802;4.350;2024-01-06T14:25:14;4.65;;;4.30;;
22490;SDS011;11412;50.802;4.350;2024-01-06T14:27:42;7.07;;;4.13;;
22490;SDS011;11412;50.802;4.350;2024-01-06T14:30:09;6.75;;;4.72;;
22490;SDS011;11412;50.802;4.350;2024-01-06T14:32:35;5.22;;;4.53;;
22490;SDS011;11412;50.802;4.350;2024-01-06T14:35:02;5.93;;;4.20;;
22490;SDS011;11412;50.802;4.350;2024-01-06T14:37:36;7.38;;;4.00;;
22490;SDS011;11412;50.802;4.350;2024-01-06T14:40:03;4.38;;;4.07;;
22490;SDS011;11412;50.802;4.350;2024-01-06T14:42:32;4.85;;;4.00;;
22490;SDS011;11412;50.802;4.350;2024-01-06T14:44:58;4.30;;;4.00;;
22490;SDS011;11412;50.802;4.350;2024-01-06T14:47:24;5.03;;;4.55;;
22490;SDS011;11412;50.802;4.350;2024-01-06T14:49:50;5.15;;;4.30;;
22490;SDS011;11412;50.802;4.350;2024-01-06T14:52:16;5.55;;;4.43;;
22490;SDS011;11412;50.802;4.350;2024-01-06T14:54:42;5.03;;;4.47;;